createdAt,value
2018-06-30T00:01:03.363Z,5.00
2018-06-30T00:06:07.055Z,5.00
2018-06-30T00:11:10.679Z,5.75
2018-06-30T00:16:14.303Z,4.00
2018-06-30T00:21:18.099Z,4.40
2018-06-30T00:26:21.689Z,5.75
2018-06-30T00:31:25.359Z,4.80
2018-06-30T00:36:29.109Z,4.00
2018-06-30T00:41:32.930Z,4.75
2018-06-30T00:46:36.514Z,5.75
2018-06-30T00:51:40.266Z,2.60
2018-06-30T00:56:43.888Z,4.00
2018-06-30T01:01:47.487Z,4.00
2018-06-30T01:06:51.446Z,4.20
2018-06-30T01:11:55.177Z,4.75
2018-06-30T01:16:58.484Z,4.00
2018-06-30T01:22:02.578Z,3.40
2018-06-30T01:27:06.189Z,4.00
2018-06-30T01:32:09.882Z,2.50
2018-06-30T01:37:13.674Z,7.00
2018-06-30T01:42:17.827Z,4.20
2018-06-30T01:47:21.714Z,5.00
2018-06-30T01:52:25.473Z,4.00
2018-06-30T01:57:29.147Z,3.00
2018-06-30T02:02:32.804Z,4.00
2018-06-30T02:07:36.377Z,3.60
2018-06-30T02:12:40.019Z,2.25
2018-06-30T02:17:43.626Z,4.00
2018-06-30T02:22:47.365Z,5.60
2018-06-30T02:27:51.107Z,3.00
2018-06-30T02:32:54.714Z,3.00
2018-06-30T02:37:58.237Z,4.00
2018-06-30T02:43:02.061Z,4.00
2018-06-30T02:48:05.661Z,3.00
2018-06-30T02:53:09.436Z,3.50
2018-06-30T02:58:13.225Z,3.25
2018-06-30T03:03:16.967Z,2.75
2018-06-30T03:08:20.753Z,3.00
2018-06-30T03:13:24.105Z,3.40
2018-06-30T03:18:27.725Z,3.75
2018-06-30T03:23:31.385Z,2.20
2018-06-30T03:28:35.018Z,3.00
2018-06-30T03:33:38.517Z,4.00
2018-06-30T03:38:42.217Z,3.40
2018-06-30T03:43:45.829Z,3.00
2018-06-30T03:48:49.808Z,3.00
2018-06-30T03:53:53.426Z,4.60
2018-06-30T03:58:58.190Z,2.00
2018-06-30T04:04:01.783Z,2.50
2018-06-30T04:09:09.660Z,1.20
2018-06-30T04:14:13.297Z,2.00
2018-06-30T04:19:17.140Z,2.75
2018-06-30T04:24:20.815Z,3.50
2018-06-30T04:29:24.644Z,2.00
2018-06-30T04:34:28.371Z,2.00
2018-06-30T04:39:32.172Z,2.00
2018-06-30T04:44:36.008Z,2.00
2018-06-30T04:49:39.792Z,2.60
2018-06-30T04:54:43.396Z,1.40
2018-06-30T04:59:46.665Z,2.50
2018-06-30T05:04:50.292Z,1.80
2018-06-30T05:09:54.084Z,2.00
2018-06-30T05:14:57.998Z,2.75
2018-06-30T05:20:01.937Z,1.60
2018-06-30T05:25:06.083Z,1.00
2018-06-30T05:30:10.017Z,2.00
2018-06-30T05:35:13.357Z,1.40
2018-06-30T05:40:17.110Z,1.20
2018-06-30T05:45:21.978Z,2.20
2018-06-30T05:50:25.681Z,2.40
2018-06-30T05:55:29.367Z,1.40
2018-06-30T06:00:32.981Z,1.80
2018-06-30T06:05:36.247Z,1.00
2018-06-30T06:10:40.053Z,2.50
2018-06-30T06:15:43.591Z,1.25
2018-06-30T06:20:47.161Z,1.80
2018-06-30T06:25:51.041Z,1.00
2018-06-30T06:30:54.791Z,1.00
2018-06-30T06:35:58.452Z,1.00
2018-06-30T06:41:02.913Z,2.00
2018-06-30T06:46:07.236Z,0.00
2018-06-30T06:51:10.832Z,2.00
2018-06-30T06:56:15.851Z,1.50
2018-06-30T07:01:20.360Z,1.00
2018-06-30T07:06:23.852Z,1.00
2018-06-30T07:11:27.574Z,0.00
2018-06-30T07:16:31.474Z,0.80
2018-06-30T07:21:34.786Z,0.20
2018-06-30T07:26:38.433Z,0.00
2018-06-30T07:31:42.279Z,0.00
2018-06-30T07:36:45.968Z,0.00
2018-06-30T07:41:49.973Z,0.00
2018-06-30T07:46:53.751Z,0.00
2018-06-30T07:51:57.280Z,0.00
2018-06-30T07:57:01.151Z,0.00
2018-06-30T08:02:05.063Z,0.00
2018-06-30T08:07:08.711Z,0.00
2018-06-30T08:12:12.423Z,0.00
2018-06-30T08:17:16.124Z,1.00
2018-06-30T08:22:20.877Z,1.50
2018-06-30T08:27:24.828Z,0.00
2018-06-30T08:32:28.460Z,1.00
2018-06-30T08:37:31.781Z,0.40
2018-06-30T08:42:35.204Z,0.75
2018-06-30T08:47:38.987Z,1.00
2018-06-30T08:52:42.890Z,0.00
2018-06-30T08:57:46.549Z,0.00
2018-06-30T09:02:50.147Z,0.40
2018-06-30T09:07:53.786Z,0.00
2018-06-30T09:12:57.455Z,0.00
2018-06-30T09:18:01.067Z,0.00
2018-06-30T09:23:04.780Z,0.00
2018-06-30T09:28:08.516Z,0.00
2018-06-30T09:33:12.226Z,0.00
2018-06-30T09:38:15.895Z,0.00
2018-06-30T09:43:19.435Z,0.00
2018-06-30T09:48:22.705Z,0.00
2018-06-30T09:53:26.415Z,0.00
2018-06-30T09:58:30.237Z,0.00
2018-06-30T10:03:33.841Z,0.00
2018-06-30T10:08:37.397Z,0.00
2018-06-30T10:13:40.887Z,0.00
2018-06-30T10:18:44.614Z,0.00
2018-06-30T10:23:48.233Z,0.00
2018-06-30T10:28:51.892Z,0.00
2018-06-30T10:33:55.526Z,0.00
2018-06-30T10:38:59.256Z,0.00
2018-06-30T10:44:02.861Z,0.00
2018-06-30T10:49:07.571Z,0.40
2018-06-30T10:54:11.218Z,0.00
2018-06-30T10:59:14.868Z,0.00
2018-06-30T11:04:18.534Z,0.00
2018-06-30T11:09:22.468Z,0.00
2018-06-30T11:14:25.751Z,0.00
2018-06-30T11:19:29.366Z,0.00
2018-06-30T11:24:33.077Z,0.00
2018-06-30T11:29:36.691Z,0.00
2018-06-30T11:34:40.444Z,0.00
2018-06-30T11:39:44.294Z,0.00
2018-06-30T11:44:47.952Z,0.00
2018-06-30T11:49:51.732Z,0.00
2018-06-30T11:54:55.907Z,0.00
2018-06-30T11:59:59.540Z,0.00
2018-06-30T12:05:03.264Z,0.00
2018-06-30T12:10:07.486Z,0.00
2018-06-30T12:15:11.157Z,0.00
2018-06-30T12:20:14.843Z,0.40
2018-06-30T12:25:18.495Z,0.00
2018-06-30T12:30:22.412Z,0.00
2018-06-30T12:35:26.201Z,1.00
2018-06-30T12:40:29.904Z,0.00
2018-06-30T12:45:33.480Z,0.00
2018-06-30T12:50:37.469Z,0.00
2018-06-30T12:55:41.116Z,0.00
2018-06-30T13:00:45.109Z,0.00
2018-06-30T13:05:48.814Z,0.00
2018-06-30T13:10:52.435Z,0.00
2018-06-30T13:15:56.030Z,0.00
2018-06-30T13:20:59.681Z,0.00
2018-06-30T13:26:03.578Z,0.00
2018-06-30T13:31:07.363Z,0.00
2018-06-30T13:36:11.145Z,0.40
2018-06-30T13:41:14.858Z,0.25
2018-06-30T13:46:18.709Z,0.60
2018-06-30T13:51:22.607Z,1.50
2018-06-30T13:56:26.220Z,0.00
2018-06-30T14:01:29.807Z,0.00
2018-06-30T14:06:33.480Z,0.00
2018-06-30T14:11:37.606Z,0.40
2018-06-30T14:16:41.228Z,0.80
2018-06-30T14:21:45.082Z,1.00
2018-06-30T14:26:48.380Z,1.00
2018-06-30T14:31:52.196Z,0.00
2018-06-30T14:36:55.676Z,0.50
2018-06-30T14:41:59.373Z,0.75
2018-06-30T14:47:03.181Z,0.20
2018-06-30T14:52:06.927Z,1.00
2018-06-30T14:57:10.732Z,1.75
2018-06-30T15:02:14.385Z,1.20
2018-06-30T15:07:18.301Z,1.00
2018-06-30T15:12:21.954Z,1.00
2018-06-30T15:17:25.651Z,0.25
2018-06-30T15:22:29.360Z,1.00
2018-06-30T15:27:33.041Z,1.60
2018-06-30T15:32:36.828Z,1.00
2018-06-30T15:37:40.458Z,0.60
2018-06-30T15:42:44.196Z,1.00
2018-06-30T15:47:47.611Z,0.50
2018-06-30T15:52:51.020Z,0.40
2018-06-30T15:57:54.672Z,1.00
2018-06-30T16:02:58.317Z,0.00
2018-06-30T16:08:01.941Z,1.00
2018-06-30T16:13:05.913Z,1.00
2018-06-30T16:18:09.638Z,0.75
2018-06-30T16:23:14.348Z,1.00
2018-06-30T16:28:19.020Z,1.00
2018-06-30T16:33:23.527Z,0.20
2018-06-30T16:38:27.952Z,0.75
2018-06-30T16:43:32.407Z,1.60
2018-06-30T16:48:37.168Z,1.00
2018-06-30T16:53:41.609Z,0.25
2018-06-30T16:58:46.078Z,0.00
2018-06-30T17:03:50.593Z,0.80
2018-06-30T17:08:55.324Z,0.50
2018-06-30T17:13:59.796Z,0.25
2018-06-30T17:19:03.538Z,1.00
2018-06-30T17:24:07.141Z,0.00
2018-06-30T17:29:10.892Z,0.75
2018-06-30T17:34:14.244Z,0.00
2018-06-30T17:39:17.882Z,0.00
2018-06-30T17:44:21.673Z,0.20
2018-06-30T17:49:25.260Z,1.00
2018-06-30T17:54:28.839Z,1.00
2018-06-30T17:59:32.452Z,0.00
2018-06-30T18:04:36.157Z,0.00
2018-06-30T18:09:39.840Z,2.00
2018-06-30T18:14:43.520Z,0.00
2018-06-30T18:19:47.596Z,1.00
2018-06-30T18:24:51.282Z,1.00
2018-06-30T18:29:55.300Z,0.50
2018-06-30T18:34:59.476Z,1.75
2018-06-30T18:40:03.140Z,1.25
2018-06-30T18:45:07.553Z,2.20
2018-06-30T18:50:11.156Z,2.00
2018-06-30T18:55:14.780Z,2.00
2018-06-30T19:00:18.493Z,2.00
2018-06-30T19:05:21.807Z,1.00
2018-06-30T19:10:25.524Z,1.00
2018-06-30T19:15:29.143Z,1.00
2018-06-30T19:20:32.803Z,2.00
2018-06-30T19:25:36.395Z,2.25
2018-06-30T19:30:40.122Z,1.00
2018-06-30T19:35:44.026Z,2.75
2018-06-30T19:40:47.689Z,1.00
2018-06-30T19:45:51.362Z,2.00
2018-06-30T19:50:55.597Z,2.20
2018-06-30T19:55:59.931Z,1.80
2018-06-30T20:01:03.541Z,0.75
2018-06-30T20:06:07.677Z,1.00
2018-06-30T20:11:11.818Z,1.00
2018-06-30T20:16:15.425Z,1.75
2018-06-30T20:21:19.077Z,2.00
2018-06-30T20:26:22.684Z,3.25
2018-06-30T20:31:26.293Z,12.25
2018-06-30T20:36:29.925Z,7.75
2018-06-30T20:41:33.589Z,12.00
2018-06-30T20:46:37.313Z,10.00
2018-06-30T20:51:40.964Z,11.60
2018-06-30T20:56:44.645Z,6.75
2018-06-30T21:01:49.688Z,7.20
2018-06-30T21:06:54.044Z,7.00
2018-06-30T21:11:57.615Z,7.25
2018-06-30T21:17:01.580Z,6.00
2018-06-30T21:22:05.751Z,5.00
2018-06-30T21:27:09.761Z,4.50
2018-06-30T21:32:14.140Z,6.00
2018-06-30T21:37:18.384Z,6.25
2018-06-30T21:42:21.967Z,4.00
2018-06-30T21:47:25.665Z,4.00
2018-06-30T21:52:29.336Z,4.00
2018-06-30T21:57:33.557Z,4.00
2018-06-30T22:02:37.542Z,2.20
2018-06-30T22:07:41.798Z,2.00
2018-06-30T22:12:45.846Z,3.00
2018-06-30T22:17:49.626Z,3.75
2018-06-30T22:22:53.352Z,2.40
2018-06-30T22:27:57.247Z,4.25
2018-06-30T22:33:01.244Z,3.40
2018-06-30T22:38:05.392Z,3.00
2018-06-30T22:43:09.005Z,3.00
2018-06-30T22:48:14.389Z,3.00
2018-06-30T22:53:18.337Z,3.00
2018-06-30T22:58:22.312Z,2.50
2018-06-30T23:03:25.985Z,2.25
2018-06-30T23:08:29.595Z,3.00
2018-06-30T23:13:33.214Z,3.00
2018-06-30T23:18:36.785Z,3.50
2018-06-30T23:23:40.452Z,4.40
2018-06-30T23:28:44.213Z,4.40
2018-06-30T23:33:47.944Z,3.00
2018-06-30T23:38:51.671Z,3.00
2018-06-30T23:43:55.093Z,3.40
2018-06-30T23:48:59.213Z,3.00
2018-06-30T23:54:02.875Z,3.75
2018-06-30T23:59:06.801Z,3.00
